Overview Statistics Trail Chart Weather Telemetry Raw packets
 

This is the latest recevied weather packets stored in our database for station/object JO1YDG-13. If no packets are shown the sender has not sent any weather packets the latest 10 day(s).

<< 1 2 3 4 >>
Time Temp. Humidity Pressure Rain* Wind** Luminosity Snow
1788580450 30° C 53% 1005.9 hPa 0 mm - - -
1788580150 30.56° C 53% 1006.1 hPa 0 mm - - -
1788579850 31.11° C 53% 1006.1 hPa 0 mm - - -
1788579549 30° C 56% 1006.1 hPa 0 mm - - -
1788579249 30.56° C 53% 1006.2 hPa 0 mm - - -
1788578949 30° C 53% 1006.2 hPa 0 mm - - -
1788578649 30° C 52% 1006.4 hPa 0 mm - - -
1788578349 29.44° C 55% 1006.4 hPa 0 mm - - -
1788578049 29.44° C 55% 1006.5 hPa 0 mm - - -
1788577751 28.89° C 56% 1006.6 hPa 0 mm - - -
1788577450 28.89° C 57% 1006.6 hPa 0 mm - - -
1788577150 28.89° C 58% 1006.7 hPa 0 mm - - -
1788576850 28.89° C 58% 1006.7 hPa 0 mm - - -
1788576550 28.33° C 58% 1007 hPa 0 mm - - -
1788576249 28.33° C 60% 1007 hPa 0 mm - - -
1788575949 29.44° C 56% 1007 hPa 0 mm - - -
1788575649 29.44° C 57% 1007.2 hPa 0 mm - - -
1788575349 28.89° C 57% 1007.2 hPa 0 mm - - -
1788575049 28.33° C 60% 1007.4 hPa 0 mm - - -
1788574749 28.33° C 59% 1007.4 hPa 0 mm - - -
1788574449 28.33° C 60% 1007.5 hPa 0 mm - - -
1788574150 28.33° C 62% 1007.6 hPa 0 mm - - -
1788573850 27.78° C 62% 1007.6 hPa 0 mm - - -
1788573550 28.33° C 62% 1008 hPa 0 mm - - -
1788573250 27.78° C 62% 1008 hPa 0 mm - - -

* Rain latest hour (hover to see other rain measurements)
** Current wind speed in m/s (hover to see current wind gust speed)